Time;durP1;ratioP1;P1;durP2;ratioP2;P2;SDS_P1;SDS_P2;PMS_P1;PMS_P2;Temp;Humidity;BMP_temperature;BMP_pressure;BME280_temperature;BME280_humidity;BME280_pressure;Samples;Min_cycle;Max_cycle;Signal;HPM_P1;HPM_P2
2020/12/25 00:00:35;;;;;;;10.80;5.28;;;21.40;48.60;;;;;;1453872;97;21754;-36
2020/12/25 00:03:03;;;;;;;14.15;5.03;;;21.40;48.60;;;;;;1438126;97;21347;-35
2020/12/25 00:05:30;;;;;;;9.55;5.10;;;21.40;48.50;;;;;;1452995;97;21324;-34
2020/12/25 00:07:58;;;;;;;11.43;5.70;;;21.40;48.60;;;;;;1436274;98;21223;-35
2020/12/25 00:10:26;;;;;;;12.43;4.95;;;21.30;48.50;;;;;;1454456;96;21261;-36
2020/12/25 00:12:53;;;;;;;8.85;5.05;;;21.30;48.50;;;;;;1456567;96;21364;-37
2020/12/25 00:15:21;;;;;;;10.43;5.25;;;21.30;48.50;;;;;;1445656;96;21782;-36
2020/12/25 00:17:48;;;;;;;8.73;4.92;;;21.30;48.50;;;;;;1457631;96;21207;-36
2020/12/25 00:20:16;;;;;;;9.35;4.83;;;21.30;48.50;;;;;;1439253;97;21180;-36
2020/12/25 00:22:44;;;;;;;6.87;3.98;;;21.30;48.50;;;;;;1439895;97;21746;-35
2020/12/25 00:25:11;;;;;;;7.65;4.55;;;21.30;48.40;;;;;;1451245;97;21490;-33
2020/12/25 00:27:39;;;;;;;9.50;4.75;;;21.30;48.30;;;;;;1438391;98;21156;-37
2020/12/25 00:30:07;;;;;;;10.93;4.87;;;21.30;48.40;;;;;;1455173;97;21237;-35
2020/12/25 00:32:34;;;;;;;11.93;5.60;;;21.30;49.00;;;;;;1455357;97;21250;-36
2020/12/25 00:35:02;;;;;;;7.55;4.65;;;21.30;48.50;;;;;;1438273;98;21386;-37
2020/12/25 00:37:30;;;;;;;12.75;4.97;;;21.20;48.40;;;;;;1455884;97;21829;-36
2020/12/25 00:39:57;;;;;;;8.43;4.95;;;21.20;48.40;;;;;;1438012;98;21322;-35
2020/12/25 00:42:25;;;;;;;9.70;5.15;;;21.20;48.40;;;;;;1455502;96;21678;-36
2020/12/25 00:44:53;;;;;;;7.72;4.25;;;21.20;48.40;;;;;;1453720;97;21308;-35
2020/12/25 00:47:20;;;;;;;9.13;4.28;;;21.20;48.40;;;;;;1436346;98;21706;-36
2020/12/25 00:49:48;;;;;;;8.10;4.12;;;21.20;48.30;;;;;;1454272;97;21220;-36
2020/12/25 00:52:15;;;;;;;8.68;4.28;;;21.20;48.30;;;;;;1456727;97;21208;-37
2020/12/25 00:54:43;;;;;;;6.47;4.03;;;21.20;48.30;;;;;;1422907;97;21296;-35
2020/12/25 00:57:11;;;;;;;8.15;4.20;;;21.20;48.30;;;;;;1454534;97;21567;-36
2020/12/25 00:59:39;;;;;;;7.35;4.25;;;21.20;48.40;;;;;;1455054;97;21203;-36
2020/12/25 01:02:07;;;;;;;7.45;4.25;;;21.20;48.30;;;;;;1439182;98;21714;-37
2020/12/25 01:04:34;;;;;;;5.72;3.65;;;21.20;48.40;;;;;;1455077;97;21233;-37
2020/12/25 01:07:06;;;;;;;9.30;4.62;;;21.20;48.40;;;;;;1422160;98;21302;-33
2020/12/25 01:09:35;;;;;;;8.88;4.03;;;21.20;48.40;;;;;;1453961;97;21953;-35
2020/12/25 01:12:04;;;;;;;7.10;4.05;;;21.20;48.30;;;;;;1452541;97;21198;-37
2020/12/25 01:14:32;;;;;;;9.65;4.55;;;21.10;48.30;;;;;;1454153;97;21189;-37
2020/12/25 01:17:00;;;;;;;8.43;4.30;;;21.20;48.30;;;;;;1455104;97;21338;-36
2020/12/25 01:19:28;;;;;;;8.08;3.80;;;21.20;48.30;;;;;;1454305;97;21152;-36
2020/12/25 01:21:55;;;;;;;6.97;3.95;;;21.20;48.40;;;;;;1450777;97;21255;-36
2020/12/25 01:24:24;;;;;;;8.38;4.50;;;21.20;48.30;;;;;;1453825;97;21306;-36
2020/12/25 01:26:52;;;;;;;7.62;3.75;;;21.20;48.30;;;;;;1441249;97;21712;-35
2020/12/25 01:29:20;;;;;;;6.70;3.67;;;21.10;48.20;;;;;;1455204;97;21197;-37
2020/12/25 01:31:47;;;;;;;9.53;3.62;;;21.10;48.20;;;;;;1452300;97;21204;-35
2020/12/25 01:34:15;;;;;;;6.33;3.40;;;21.10;48.70;;;;;;1437824;97;21209;-37
2020/12/25 01:36:43;;;;;;;6.70;4.03;;;21.10;48.20;;;;;;1452926;97;21366;-36
2020/12/25 01:39:10;;;;;;;8.10;3.70;;;21.10;48.20;;;;;;1441383;97;21270;-35
2020/12/25 01:41:38;;;;;;;6.20;3.40;;;21.10;48.20;;;;;;1435145;97;21209;-35
2020/12/25 01:44:06;;;;;;;6.35;3.62;;;21.10;48.10;;;;;;1453965;97;21237;-35
2020/12/25 01:46:33;;;;;;;5.03;3.08;;;21.10;48.00;;;;;;1456826;97;21361;-37
2020/12/25 01:49:01;;;;;;;8.30;3.55;;;21.10;48.10;;;;;;1451100;97;21391;-36
2020/12/25 01:51:29;;;;;;;7.17;3.87;;;21.10;48.00;;;;;;1455205;97;21211;-36
2020/12/25 01:53:58;;;;;;;6.10;3.40;;;21.10;48.00;;;;;;1454447;97;21349;-34
2020/12/25 01:56:26;;;;;;;6.45;3.20;;;21.00;47.90;;;;;;1454689;97;21146;-35
2020/12/25 01:58:54;;;;;;;6.65;3.60;;;21.00;48.30;;;;;;1438901;97;21164;-35
2020/12/25 02:01:22;;;;;;;3.98;2.83;;;21.00;48.00;;;;;;1439308;97;21298;-35
2020/12/25 02:03:49;;;;;;;4.42;2.85;;;21.10;48.00;;;;;;1454846;97;21168;-35
2020/12/25 02:06:17;;;;;;;5.78;3.45;;;21.10;48.10;;;;;;1438034;97;21875;-35
2020/12/25 02:08:45;;;;;;;6.62;3.72;;;21.00;48.10;;;;;;1452342;97;21691;-36
2020/12/25 02:11:13;;;;;;;6.85;3.42;;;21.10;48.20;;;;;;1448179;97;21346;-35
2020/12/25 02:13:41;;;;;;;5.60;3.00;;;21.10;48.20;;;;;;1426843;98;21704;-36
2020/12/25 02:16:08;;;;;;;5.85;3.00;;;21.00;48.10;;;;;;1439674;98;21786;-36
2020/12/25 02:18:39;;;;;;;6.50;3.27;;;21.00;48.10;;;;;;1432444;98;21230;-36
2020/12/25 02:21:07;;;;;;;5.20;3.00;;;21.00;48.10;;;;;;1425758;98;21227;-36
2020/12/25 02:23:34;;;;;;;6.65;3.02;;;21.00;48.10;;;;;;1440681;98;21286;-36
2020/12/25 02:26:02;;;;;;;6.42;2.83;;;21.00;48.00;;;;;;1428237;98;21809;-36
2020/12/25 02:28:30;;;;;;;3.92;2.62;;;21.00;48.00;;;;;;1440407;98;21342;-36
2020/12/25 02:30:58;;;;;;;6.35;2.98;;;21.00;48.00;;;;;;1440570;98;21236;-34
2020/12/25 02:33:26;;;;;;;5.25;2.92;;;21.00;48.00;;;;;;1443011;98;21247;-34
2020/12/25 02:35:53;;;;;;;5.60;3.08;;;21.00;48.00;;;;;;1440747;98;21379;-36
2020/12/25 02:38:21;;;;;;;4.60;3.05;;;21.00;48.00;;;;;;1438152;98;21242;-37
2020/12/25 02:40:49;;;;;;;4.62;2.42;;;21.00;48.00;;;;;;1425184;98;21271;-36
2020/12/25 02:43:16;;;;;;;5.17;2.72;;;21.00;48.00;;;;;;1442518;98;21242;-36
2020/12/25 02:45:44;;;;;;;4.40;2.50;;;21.00;48.00;;;;;;1440536;98;21262;-36
2020/12/25 02:48:12;;;;;;;3.98;2.62;;;21.00;48.00;;;;;;1442146;98;21227;-35
2020/12/25 02:50:39;;;;;;;5.05;2.72;;;21.00;48.00;;;;;;1439564;98;21686;-36
2020/12/25 02:53:07;;;;;;;4.05;2.60;;;21.00;48.00;;;;;;1425090;98;21217;-35
2020/12/25 02:55:34;;;;;;;4.87;2.60;;;21.00;47.90;;;;;;1441798;98;21444;-35
2020/12/25 02:58:02;;;;;;;4.17;2.42;;;21.00;47.90;;;;;;1442395;98;22018;-37
2020/12/25 03:00:30;;;;;;;3.17;2.25;;;21.10;47.90;;;;;;1425391;98;21307;-35
2020/12/25 03:02:57;;;;;;;3.98;2.65;;;21.10;48.00;;;;;;1440896;98;21232;-35
2020/12/25 03:05:25;;;;;;;3.85;2.22;;;21.10;47.90;;;;;;1415142;98;21291;-36
2020/12/25 03:07:53;;;;;;;4.87;2.87;;;21.10;47.90;;;;;;1443239;98;21671;-36
2020/12/25 03:10:20;;;;;;;3.60;2.20;;;21.10;47.80;;;;;;1440327;98;21247;-36
2020/12/25 03:12:48;;;;;;;3.15;2.20;;;21.10;47.80;;;;;;1442669;97;21200;-37
2020/12/25 03:15:16;;;;;;;5.50;3.25;;;21.20;47.80;;;;;;1445130;97;22522;-36
2020/12/25 03:17:43;;;;;;;4.42;2.67;;;21.20;47.80;;;;;;1427636;97;21267;-36
2020/12/25 03:20:11;;;;;;;3.98;2.45;;;21.20;47.70;;;;;;1427583;99;21241;-35
2020/12/25 03:22:38;;;;;;;3.10;2.10;;;21.20;47.70;;;;;;1444855;97;21266;-36
2020/12/25 03:25:06;;;;;;;3.33;1.95;;;21.20;47.70;;;;;;1444064;97;21414;-37
2020/12/25 03:27:34;;;;;;;4.70;2.10;;;21.20;47.70;;;;;;1445328;98;21206;-36
2020/12/25 03:30:02;;;;;;;4.65;2.45;;;21.20;47.70;;;;;;1445272;97;21286;-36
2020/12/25 03:32:29;;;;;;;3.92;2.30;;;21.20;47.70;;;;;;1444902;97;21207;-35
2020/12/25 03:34:57;;;;;;;4.60;2.40;;;21.20;47.60;;;;;;1444530;98;21300;-36
2020/12/25 03:37:25;;;;;;;5.17;2.77;;;21.20;47.60;;;;;;1430302;99;21632;-36
2020/12/25 03:39:52;;;;;;;3.30;1.92;;;21.20;47.50;;;;;;1427775;97;21208;-34
2020/12/25 03:42:20;;;;;;;4.45;2.45;;;21.20;47.50;;;;;;1444572;97;21602;-36
2020/12/25 03:44:54;;;;;;;3.15;2.27;;;21.20;47.40;;;;;;1443213;97;21315;-35
2020/12/25 03:47:17;;;;;;;3.08;2.02;;;21.30;47.40;;;;;;1445883;97;21675;-36
2020/12/25 03:49:44;;;;;;;4.00;2.27;;;21.30;47.40;;;;;;1444657;97;21254;-38
2020/12/25 03:52:12;;;;;;;6.15;2.60;;;21.30;47.40;;;;;;1445250;98;21278;-34
2020/12/25 03:54:40;;;;;;;2.85;1.65;;;21.30;47.40;;;;;;1445434;97;21381;-37
2020/12/25 03:57:07;;;;;;;3.67;2.37;;;21.30;47.40;;;;;;1445461;98;21198;-35
2020/12/25 03:59:35;;;;;;;2.77;1.82;;;21.30;47.30;;;;;;1426957;97;21248;-34
2020/12/25 04:02:03;;;;;;;3.37;1.95;;;21.30;47.30;;;;;;1445676;97;21323;-36
2020/12/25 04:04:31;;;;;;;3.92;2.25;;;21.30;47.30;;;;;;1444929;97;21520;-36
2020/12/25 04:06:58;;;;;;;3.62;2.02;;;21.30;47.20;;;;;;1448148;97;21247;-36
2020/12/25 04:09:26;;;;;;;2.00;1.45;;;21.30;47.20;;;;;;1443586;97;21334;-33
2020/12/25 04:11:54;;;;;;;4.65;2.05;;;21.30;47.20;;;;;;1430267;97;21245;-38
2020/12/25 04:14:21;;;;;;;2.98;2.15;;;21.30;47.20;;;;;;1445816;97;21751;-36
2020/12/25 04:16:49;;;;;;;2.98;1.72;;;21.30;47.20;;;;;;1447316;97;21208;-37
2020/12/25 04:19:17;;;;;;;3.33;2.00;;;21.30;47.10;;;;;;1446860;97;21804;-34
2020/12/25 04:21:44;;;;;;;2.65;1.80;;;21.30;47.10;;;;;;1445539;97;21232;-37
2020/12/25 04:24:12;;;;;;;2.90;1.95;;;21.30;47.10;;;;;;1426918;98;21271;-34
2020/12/25 04:26:40;;;;;;;3.42;2.15;;;21.30;47.10;;;;;;1447311;97;21215;-36
2020/12/25 04:29:07;;;;;;;3.30;1.95;;;21.30;47.10;;;;;;1445932;97;21271;-36
2020/12/25 04:31:35;;;;;;;5.05;1.90;;;21.30;47.10;;;;;;1442865;97;21468;-34
2020/12/25 04:34:03;;;;;;;4.03;2.00;;;21.30;47.70;;;;;;1444333;97;21827;-34
2020/12/25 04:36:30;;;;;;;4.15;2.10;;;21.30;47.00;;;;;;1419229;99;21235;-35
2020/12/25 04:38:58;;;;;;;3.40;1.92;;;21.30;47.00;;;;;;1428963;98;21850;-35
2020/12/25 04:41:26;;;;;;;2.37;1.45;;;21.40;47.00;;;;;;1446104;97;21265;-36
2020/12/25 04:43:58;;;;;;;2.00;1.60;;;21.30;47.00;;;;;;1425579;97;21286;-34
2020/12/25 04:46:26;;;;;;;2.12;1.50;;;21.30;47.00;;;;;;1446218;97;21200;-35
2020/12/25 04:48:55;;;;;;;3.25;1.92;;;21.40;47.40;;;;;;1446255;97;21232;-36
2020/12/25 04:51:23;;;;;;;2.22;1.85;;;21.40;46.90;;;;;;1414925;99;21267;-36
2020/12/25 04:53:52;;;;;;;3.40;2.10;;;21.30;46.60;;;;;;1444862;97;21416;-35
2020/12/25 04:56:22;;;;;;;3.10;1.87;;;21.30;46.90;;;;;;1444911;98;21286;-35
2020/12/25 04:58:51;;;;;;;4.70;1.62;;;21.40;46.90;;;;;;1446067;97;21376;-36
2020/12/25 05:01:19;;;;;;;2.98;1.70;;;21.30;46.90;;;;;;1445726;97;21441;-34
2020/12/25 05:03:47;;;;;;;2.67;1.57;;;21.30;46.80;;;;;;1446537;97;21365;-35
2020/12/25 05:06:18;;;;;;;2.60;1.40;;;21.30;46.80;;;;;;1445898;97;21223;-35
2020/12/25 05:08:50;;;;;;;3.42;1.70;;;21.40;46.80;;;;;;1444379;97;21240;-36
2020/12/25 05:11:20;;;;;;;2.20;1.47;;;21.30;46.70;;;;;;1446417;97;21226;-35
2020/12/25 05:13:49;;;;;;;1.67;1.12;;;21.40;46.80;;;;;;1454005;97;21247;-36
2020/12/25 05:16:19;;;;;;;3.42;1.45;;;21.30;46.70;;;;;;1439844;98;21289;-36
2020/12/25 05:18:49;;;;;;;2.00;1.30;;;21.30;46.70;;;;;;1454359;97;21659;-35
2020/12/25 05:21:18;;;;;;;2.67;1.67;;;21.30;46.60;;;;;;1453053;97;21266;-36
2020/12/25 05:23:47;;;;;;;3.05;1.77;;;21.40;46.70;;;;;;1436555;97;21191;-35
2020/12/25 05:26:16;;;;;;;2.70;1.55;;;21.40;46.60;;;;;;1452579;97;21245;-33
2020/12/25 05:28:45;;;;;;;2.17;1.52;;;21.40;46.60;;;;;;1452874;97;21418;-35
2020/12/25 05:31:14;;;;;;;2.08;1.40;;;21.30;46.50;;;;;;1421190;98;21320;-33
2020/12/25 05:33:42;;;;;;;2.87;1.67;;;21.40;46.60;;;;;;1452419;97;21254;-37
2020/12/25 05:36:14;;;;;;;3.10;1.65;;;21.40;46.60;;;;;;1452057;97;21221;-36
2020/12/25 05:38:50;;;;;;;3.00;1.92;;;21.30;46.60;;;;;;1436191;97;21207;-35
2020/12/25 05:41:18;;;;;;;2.33;1.50;;;21.40;46.60;;;;;;1453690;97;21283;-35
2020/12/25 05:43:48;;;;;;;2.75;1.47;;;21.30;46.50;;;;;;1434400;97;21818;-34
2020/12/25 05:46:16;;;;;;;2.27;1.60;;;21.30;46.50;;;;;;1451859;97;21352;-38
2020/12/25 05:48:49;;;;;;;2.00;1.30;;;21.30;46.50;;;;;;1454591;97;21235;-36
2020/12/25 05:51:17;;;;;;;2.22;1.35;;;21.40;46.60;;;;;;1455040;97;21271;-35
2020/12/25 05:53:45;;;;;;;1.67;1.27;;;21.40;46.50;;;;;;1454631;97;22580;-39
2020/12/25 05:56:15;;;;;;;3.30;1.80;;;21.40;46.50;;;;;;1452617;97;21277;-37
2020/12/25 05:58:47;;;;;;;3.95;1.62;;;21.30;46.40;;;;;;1453641;97;21295;-33
2020/12/25 06:01:15;;;;;;;2.60;1.37;;;21.40;46.50;;;;;;1453576;97;21200;-36
2020/12/25 06:03:45;;;;;;;1.45;1.12;;;21.40;46.40;;;;;;1422328;98;21291;-36
2020/12/25 06:06:14;;;;;;;2.08;1.32;;;21.30;46.30;;;;;;1451417;97;21203;-36
2020/12/25 06:08:59;;;;;;;2.33;1.27;;;21.40;46.40;;;;;;1454119;97;21333;-35
2020/12/25 06:11:29;;;;;;;1.92;1.40;;;21.40;46.30;;;;;;1447395;97;68099;-37
2020/12/25 06:13:59;;;;;;;1.90;1.40;;;21.30;46.30;;;;;;1453477;97;21266;-34
2020/12/25 06:16:31;;;;;;;1.95;1.32;;;21.30;46.30;;;;;;1422370;97;21211;-36
2020/12/25 06:19:11;;;;;;;1.85;1.32;;;21.30;46.20;;;;;;1454446;97;21974;-37
2020/12/25 06:21:50;;;;;;;3.67;1.75;;;21.30;46.20;;;;;;1452632;97;21253;-36
2020/12/25 06:24:20;;;;;;;1.67;1.12;;;21.30;46.20;;;;;;1451695;97;67541;-35
2020/12/25 06:26:54;;;;;;;2.25;1.35;;;21.30;46.20;;;;;;1458531;97;21265;-36
2020/12/25 06:29:23;;;;;;;2.30;1.37;;;21.30;46.20;;;;;;1438909;98;21211;-36
2020/12/25 06:31:52;;;;;;;2.47;1.22;;;21.30;46.20;;;;;;1455401;96;21323;-35
2020/12/25 06:34:20;;;;;;;3.90;1.50;;;21.30;46.30;;;;;;1454336;97;21243;-36
2020/12/25 06:36:50;;;;;;;2.42;1.35;;;21.40;46.10;;;;;;1454367;97;21215;-35
2020/12/25 06:39:20;;;;;;;1.45;1.15;;;21.30;46.10;;;;;;1454928;97;21827;-36
2020/12/25 06:41:48;;;;;;;3.20;1.47;;;21.40;46.10;;;;;;1454669;97;21274;-35
2020/12/25 06:44:18;;;;;;;2.87;1.67;;;21.40;46.10;;;;;;1439179;98;21653;-36
2020/12/25 06:46:50;;;;;;;1.55;1.05;;;21.30;46.00;;;;;;1455015;97;21224;-37
2020/12/25 06:49:19;;;;;;;2.15;0.98;;;21.40;46.10;;;;;;1456322;97;21762;-37
2020/12/25 06:51:48;;;;;;;2.45;1.02;;;21.30;46.00;;;;;;1454316;97;21251;-37
2020/12/25 06:54:26;;;;;;;2.20;1.62;;;21.40;46.00;;;;;;1454968;97;21192;-36
2020/12/25 06:56:55;;;;;;;3.52;1.60;;;21.30;46.00;;;;;;1455524;96;21286;-36
2020/12/25 06:59:24;;;;;;;2.15;1.15;;;21.30;46.00;;;;;;1454981;97;21295;-37
2020/12/25 07:01:52;;;;;;;1.72;1.10;;;21.40;46.00;;;;;;1439892;97;21845;-36
2020/12/25 07:04:24;;;;;;;1.80;1.20;;;21.30;45.90;;;;;;1459519;96;21298;-35
2020/12/25 07:06:55;;;;;;;2.25;1.37;;;21.30;45.90;;;;;;1453164;97;21167;-37
2020/12/25 07:09:24;;;;;;;2.10;1.10;;;21.30;45.90;;;;;;1439208;97;21231;-35
2020/12/25 07:11:53;;;;;;;2.55;1.30;;;21.40;45.90;;;;;;1453977;97;21245;-36
2020/12/25 07:14:21;;;;;;;1.57;1.05;;;21.40;45.90;;;;;;1435182;98;21204;-34
2020/12/25 07:16:49;;;;;;;1.98;1.10;;;21.30;45.80;;;;;;1453247;97;22660;-36
2020/12/25 07:19:16;;;;;;;1.85;1.30;;;21.30;45.80;;;;;;1452713;97;21238;-36
2020/12/25 07:21:44;;;;;;;2.70;1.32;;;21.30;45.80;;;;;;1434827;97;21187;-36
2020/12/25 07:24:12;;;;;;;1.77;1.15;;;21.30;45.80;;;;;;1455615;97;21279;-36
2020/12/25 07:26:40;;;;;;;1.65;1.20;;;21.30;45.80;;;;;;1453842;97;21773;-35
2020/12/25 07:29:15;;;;;;;2.12;1.17;;;21.40;45.80;;;;;;1436833;98;21257;-36
2020/12/25 07:31:52;;;;;;;2.17;1.42;;;21.30;45.80;;;;;;1443740;97;67171;-36
2020/12/25 07:34:24;;;;;;;2.17;1.00;;;21.30;45.90;;;;;;1407124;98;21870;-39
2020/12/25 07:36:54;;;;;;;2.60;1.05;;;21.30;45.80;;;;;;1433037;98;21258;-35
2020/12/25 07:39:22;;;;;;;1.45;1.05;;;21.30;45.90;;;;;;1432941;98;21345;-36
2020/12/25 07:41:51;;;;;;;2.20;1.25;;;21.40;45.90;;;;;;1422353;98;21266;-35
2020/12/25 07:44:19;;;;;;;3.90;1.25;;;21.30;45.90;;;;;;1431833;98;21243;-34
2020/12/25 07:46:47;;;;;;;1.45;1.15;;;21.30;45.90;;;;;;1402180;98;21272;-39
2020/12/25 07:49:15;;;;;;;1.70;1.20;;;21.30;45.90;;;;;;1429559;98;21361;-36
2020/12/25 07:51:43;;;;;;;1.82;1.20;;;21.30;45.90;;;;;;1434009;98;21261;-35
2020/12/25 07:54:11;;;;;;;3.22;1.30;;;21.40;46.00;;;;;;1416871;98;21292;-37
2020/12/25 07:56:38;;;;;;;2.67;1.30;;;21.40;46.00;;;;;;1434713;98;21267;-37
2020/12/25 07:59:06;;;;;;;4.28;1.17;;;21.40;46.10;;;;;;1431870;98;21340;-36
2020/12/25 08:01:35;;;;;;;3.52;1.05;;;21.30;46.00;;;;;;1416580;100;21249;-36
2020/12/25 08:04:04;;;;;;;1.10;1.00;;;21.30;46.00;;;;;;1433448;98;21272;-35
2020/12/25 08:06:35;;;;;;;1.12;0.95;;;21.40;46.10;;;;;;1416461;98;21842;-36
2020/12/25 08:09:06;;;;;;;1.90;1.20;;;21.30;46.00;;;;;;1431999;98;21221;-36
2020/12/25 08:11:34;;;;;;;2.95;1.35;;;21.40;46.00;;;;;;1430961;98;21256;-35
2020/12/25 08:14:08;;;;;;;1.80;1.10;;;21.30;46.00;;;;;;1436640;97;21261;-37
2020/12/25 08:16:43;;;;;;;1.57;0.98;;;21.40;46.10;;;;;;1452771;97;21336;-37
2020/12/25 08:19:11;;;;;;;2.55;1.12;;;21.40;46.10;;;;;;1437492;98;21348;-37
2020/12/25 08:21:40;;;;;;;1.75;1.02;;;21.40;46.10;;;;;;1453443;97;21269;-38
2020/12/25 08:24:13;;;;;;;1.35;1.20;;;21.40;46.20;;;;;;1451636;97;21893;-37
2020/12/25 08:26:41;;;;;;;2.10;1.30;;;21.40;46.20;;;;;;1452604;97;21744;-36
2020/12/25 08:29:09;;;;;;;2.27;1.12;;;21.40;46.10;;;;;;1453568;97;21346;-36
2020/12/25 08:31:39;;;;;;;2.05;0.90;;;21.40;46.20;;;;;;1454303;97;21289;-36
2020/12/25 08:34:08;;;;;;;1.35;0.90;;;21.40;46.20;;;;;;1452402;97;21328;-35
2020/12/25 08:36:36;;;;;;;1.67;0.98;;;21.40;46.20;;;;;;1453502;97;22469;-38
2020/12/25 08:39:03;;;;;;;2.00;1.10;;;21.40;46.20;;;;;;1452280;97;22406;-37
2020/12/25 08:41:31;;;;;;;1.85;1.10;;;21.40;46.20;;;;;;1453701;97;21252;-36
2020/12/25 08:44:14;;;;;;;2.08;1.35;;;21.40;46.20;;;;;;1453031;97;21245;-36
2020/12/25 08:46:45;;;;;;;1.52;1.00;;;21.40;46.20;;;;;;1418106;97;67885;-36
2020/12/25 08:49:12;;;;;;;2.10;0.88;;;21.40;46.20;;;;;;1446338;97;21239;-36
2020/12/25 08:51:40;;;;;;;1.22;0.95;;;21.40;46.20;;;;;;1430887;97;21269;-35
2020/12/25 08:54:08;;;;;;;1.07;0.90;;;21.40;46.10;;;;;;1441717;97;21334;-38
2020/12/25 08:56:37;;;;;;;19.85;1.22;;;21.40;46.10;;;;;;1446917;97;21227;-37
2020/12/25 08:59:07;;;;;;;2.27;1.00;;;21.50;46.60;;;;;;1432777;97;21350;-36
2020/12/25 09:01:41;;;;;;;2.40;1.15;;;21.60;46.80;;;;;;1447963;97;21303;-33
2020/12/25 09:04:22;;;;;;;3.10;1.27;;;21.60;47.10;;;;;;1449026;97;21298;-34
2020/12/25 09:06:51;;;;;;;2.17;1.15;;;21.70;46.70;;;;;;1439095;97;68122;-35
2020/12/25 09:09:20;;;;;;;2.77;1.10;;;21.70;46.90;;;;;;1430378;98;21246;-35
2020/12/25 09:11:48;;;;;;;3.50;1.40;;;21.80;46.50;;;;;;1446188;97;21335;-37
2020/12/25 09:14:15;;;;;;;3.27;1.30;;;21.80;46.50;;;;;;1429041;98;21308;-35
2020/12/25 09:16:43;;;;;;;2.47;1.37;;;;;;;;;;1431932;98;21300;-34
2020/12/25 09:19:11;;;;;;;2.87;1.02;;;21.90;46.50;;;;;;1416975;98;21222;-34
2020/12/25 09:21:38;;;;;;;5.33;1.05;;;21.90;46.30;;;;;;1430266;97;21219;-37
2020/12/25 09:24:06;;;;;;;4.37;0.98;;;22.00;46.30;;;;;;1431084;97;21346;-35
2020/12/25 09:26:33;;;;;;;3.50;1.32;;;22.00;46.20;;;;;;1418618;99;21686;-37
2020/12/25 09:29:01;;;;;;;2.55;1.30;;;22.10;46.20;;;;;;1430206;98;21318;-34
2020/12/25 09:31:29;;;;;;;2.08;1.10;;;22.10;46.10;;;;;;1415840;98;21718;-36
2020/12/25 09:33:56;;;;;;;3.02;1.00;;;22.10;46.10;;;;;;1417349;97;21514;-35
2020/12/25 09:36:24;;;;;;;1.85;1.05;;;22.10;46.10;;;;;;1431056;98;21219;-35
2020/12/25 09:38:52;;;;;;;1.90;1.00;;;22.20;46.20;;;;;;1416338;98;21458;-32
2020/12/25 09:41:19;;;;;;;1.20;0.98;;;22.20;46.10;;;;;;1430981;97;21433;-35
2020/12/25 09:43:47;;;;;;;1.40;1.07;;;22.20;46.30;;;;;;1432097;98;21421;-36
2020/12/25 09:46:15;;;;;;;10.95;1.25;;;22.20;46.30;;;;;;1430033;98;21334;-36
2020/12/25 09:48:42;;;;;;;4.25;1.27;;;22.20;46.10;;;;;;1430958;97;21238;-34
2020/12/25 09:51:10;;;;;;;3.08;1.47;;;22.20;46.10;;;;;;1429795;98;21240;-34
2020/12/25 09:53:38;;;;;;;3.35;1.10;;;22.30;46.30;;;;;;1417598;98;21554;-38
2020/12/25 09:56:06;;;;;;;6.20;1.40;;;22.20;46.10;;;;;;1430598;98;21330;-36
2020/12/25 09:58:35;;;;;;;3.83;1.52;;;22.20;46.30;;;;;;1401820;98;21275;-35
2020/12/25 10:01:03;;;;;;;3.10;1.17;;;22.30;46.30;;;;;;1431912;98;21239;-36
2020/12/25 10:03:31;;;;;;;4.28;1.60;;;22.30;46.30;;;;;;1431679;98;22494;-36
2020/12/25 10:05:59;;;;;;;5.55;1.45;;;22.30;46.20;;;;;;1417132;98;21278;-37
2020/12/25 10:08:26;;;;;;;2.47;1.20;;;22.30;46.20;;;;;;1432468;98;21232;-35
2020/12/25 10:10:54;;;;;;;3.83;1.62;;;22.30;46.20;;;;;;1433694;98;21289;-36
2020/12/25 10:13:23;;;;;;;3.00;1.47;;;22.40;46.20;;;;;;1419102;98;21760;-35
2020/12/25 10:15:52;;;;;;;4.35;1.40;;;22.40;46.20;;;;;;1433099;98;21243;-37
2020/12/25 10:18:21;;;;;;;3.67;1.22;;;22.40;46.10;;;;;;1432359;97;21274;-37
2020/12/25 10:20:48;;;;;;;4.37;1.47;;;;;;;;;;1432105;98;21326;-34
2020/12/25 10:23:16;;;;;;;2.70;1.10;;;22.40;46.00;;;;;;1431356;98;21611;-41
2020/12/25 10:25:44;;;;;;;2.80;1.20;;;22.40;45.90;;;;;;1432878;98;21195;-39
2020/12/25 10:28:11;;;;;;;3.52;1.52;;;22.50;45.90;;;;;;1433324;98;21334;-38
2020/12/25 10:30:39;;;;;;;5.47;1.15;;;;;;;;;;1432958;98;21519;-35
2020/12/25 10:33:06;;;;;;;7.55;1.70;;;22.50;45.70;;;;;;1402822;98;21670;-36
2020/12/25 10:35:34;;;;;;;3.37;1.10;;;22.40;45.80;;;;;;1430273;98;21246;-36
2020/12/25 10:38:02;;;;;;;2.85;1.17;;;22.40;45.70;;;;;;1431415;97;22042;-37
2020/12/25 10:40:29;;;;;;;4.22;1.57;;;22.40;45.60;;;;;;1418597;98;22766;-36
2020/12/25 10:42:57;;;;;;;2.72;1.20;;;22.40;45.70;;;;;;1431224;98;21257;-35
2020/12/25 10:45:25;;;;;;;6.45;1.80;;;22.40;45.90;;;;;;1416605;98;21237;-35
2020/12/25 10:47:53;;;;;;;3.80;1.60;;;22.40;46.70;;;;;;1415751;98;21301;-36
2020/12/25 10:50:21;;;;;;;5.42;1.72;;;22.40;46.60;;;;;;1428995;98;22404;-36
2020/12/25 10:52:48;;;;;;;6.83;1.90;;;22.40;46.70;;;;;;1402846;98;21350;-36
2020/12/25 10:55:16;;;;;;;6.70;1.98;;;22.40;47.00;;;;;;1429826;98;21377;-36
2020/12/25 10:57:43;;;;;;;4.53;1.70;;;22.50;47.60;;;;;;1429679;98;21290;-34
2020/12/25 11:00:11;;;;;;;5.90;1.90;;;22.50;47.00;;;;;;1416296;98;21259;-35
2020/12/25 11:02:39;;;;;;;8.15;2.15;;;22.40;48.40;;;;;;1431986;98;21242;-35
2020/12/25 11:05:06;;;;;;;8.45;1.77;;;22.40;48.30;;;;;;1415414;98;21322;-36
2020/12/25 11:07:34;;;;;;;8.10;2.10;;;22.50;48.40;;;;;;1415918;98;21345;-34
2020/12/25 11:10:02;;;;;;;7.47;2.42;;;22.50;48.30;;;;;;1431526;98;21266;-35
2020/12/25 11:12:29;;;;;;;6.42;1.67;;;22.50;48.40;;;;;;1403840;98;21221;-34
2020/12/25 11:14:57;;;;;;;8.08;1.85;;;22.50;48.30;;;;;;1416459;98;21220;-37
2020/12/25 11:17:25;;;;;;;11.78;1.77;;;22.50;48.20;;;;;;1434738;98;21377;-38
2020/12/25 11:19:57;;;;;;;4.62;1.90;;;22.50;48.10;;;;;;1420999;98;21204;-35
2020/12/25 11:22:22;;;;;;;5.83;1.65;;;22.50;48.00;;;;;;1431987;98;21576;-36
2020/12/25 11:24:50;;;;;;;6.17;2.20;;;22.50;47.90;;;;;;1437101;98;21330;-36
2020/12/25 11:27:18;;;;;;;4.95;1.98;;;22.50;47.80;;;;;;1420856;99;21227;-34
2020/12/25 11:29:45;;;;;;;7.83;2.47;;;22.50;47.90;;;;;;1434894;98;21239;-35
2020/12/25 11:32:13;;;;;;;13.68;1.90;;;22.50;47.90;;;;;;1406983;98;21199;-37
2020/12/25 11:34:41;;;;;;;7.75;2.22;;;22.50;48.00;;;;;;1435982;98;21231;-39
2020/12/25 11:37:08;;;;;;;7.22;1.80;;;22.50;48.10;;;;;;1436040;98;22503;-36
2020/12/25 11:39:36;;;;;;;4.30;1.82;;;22.50;48.20;;;;;;1433758;98;21373;-35
2020/12/25 11:42:04;;;;;;;9.68;1.90;;;22.50;48.20;;;;;;1434364;98;21207;-37
2020/12/25 11:44:31;;;;;;;10.03;1.82;;;22.50;48.10;;;;;;1432385;98;21753;-39
2020/12/25 11:47:00;;;;;;;9.80;2.40;;;22.50;48.60;;;;;;1416858;98;21378;-35
2020/12/25 11:49:27;;;;;;;9.48;2.25;;;;;;;;;;1434048;98;21315;-35
2020/12/25 11:51:58;;;;;;;9.58;1.77;;;22.60;48.00;;;;;;1419876;98;21152;-36
2020/12/25 11:54:26;;;;;;;6.58;1.67;;;22.60;48.00;;;;;;1420896;99;21411;-39
2020/12/25 11:56:54;;;;;;;7.97;1.85;;;22.60;48.10;;;;;;1434757;98;21330;-38
2020/12/25 11:59:22;;;;;;;3.98;1.92;;;22.60;48.10;;;;;;1419603;98;21789;-38
2020/12/25 12:01:50;;;;;;;7.78;2.22;;;22.60;48.10;;;;;;1435549;98;21243;-36
2020/12/25 12:04:18;;;;;;;6.97;2.02;;;22.60;48.00;;;;;;1433650;98;21322;-40
2020/12/25 12:06:46;;;;;;;6.78;1.95;;;22.60;47.90;;;;;;1432207;98;21231;-39
2020/12/25 12:09:13;;;;;;;7.37;1.60;;;22.50;48.00;;;;;;1419754;98;21275;-38
2020/12/25 12:11:43;;;;;;;5.60;2.02;;;22.60;47.90;;;;;;1421298;98;21301;-37
2020/12/25 12:14:11;;;;;;;6.00;1.80;;;22.60;47.80;;;;;;1419183;98;21212;-35
2020/12/25 12:16:39;;;;;;;8.98;1.98;;;22.50;47.70;;;;;;1434533;98;21333;-36
2020/12/25 12:19:07;;;;;;;5.72;1.90;;;22.50;47.60;;;;;;1406091;99;21295;-38
2020/12/25 12:21:34;;;;;;;4.47;1.60;;;22.60;47.60;;;;;;1434547;98;21235;-36
2020/12/25 12:24:02;;;;;;;4.97;1.82;;;22.60;47.60;;;;;;1434860;98;21844;-39
2020/12/25 12:26:30;;;;;;;6.80;2.47;;;22.60;47.40;;;;;;1406829;98;21211;-37
2020/12/25 12:28:58;;;;;;;6.83;1.98;;;22.60;47.40;;;;;;1435486;98;21304;-36
2020/12/25 12:31:26;;;;;;;4.97;1.77;;;22.60;47.40;;;;;;1427929;99;21371;-38
2020/12/25 12:33:54;;;;;;;5.12;1.70;;;22.60;47.30;;;;;;1431152;98;21270;-38
2020/12/25 12:36:22;;;;;;;7.35;1.85;;;22.60;47.30;;;;;;1431553;98;21260;-37
2020/12/25 12:38:50;;;;;;;5.10;2.02;;;22.60;47.20;;;;;;1420630;98;21366;-37
2020/12/25 12:41:17;;;;;;;6.78;2.27;;;22.60;47.90;;;;;;1432769;98;21243;-37
2020/12/25 12:43:45;;;;;;;6.58;1.67;;;22.60;47.20;;;;;;1433968;98;21191;-37
2020/12/25 12:46:14;;;;;;;2.72;1.50;;;22.40;46.50;;;;;;1432793;98;21741;-37
2020/12/25 12:48:43;;;;;;;7.03;1.67;;;22.30;46.80;;;;;;1434785;98;21234;-35
2020/12/25 12:51:11;;;;;;;6.95;1.90;;;22.30;47.00;;;;;;1435771;98;21267;-36
2020/12/25 12:53:39;;;;;;;5.70;1.62;;;22.20;47.70;;;;;;1419733;98;21219;-37